Date,TemperatureHighF,TemperatureAvgF,TemperatureLowF,DewpointHighF,DewpointAvgF,DewpointLowF,HumidityHigh,HumidityAvg,HumidityLow,PressureMaxIn,PressureMinIn,WindSpeedMaxMPH,WindSpeedAvgMPH,GustSpeedMaxMPH,PrecipitationSumIn
2013-1-1,75.3,66.1,56.0,62.4,59.1,54.0,94,79,61,30.23,30.06,15,3,16,0.00
2013-1-2,74.2,66.2,60.2,69.4,63.9,59.1,97,93,83,30.10,30.01,13,2,14,0.00
2013-1-3,78.0,66.9,58.9,70.2,64.3,58.1,98,92,68,30.15,30.03,13,3,14,0.08
2013-1-4,66.2,61.1,57.9,61.9,59.0,56.5,96,93,85,30.28,30.13,14,5,16,0.02
2013-1-5,77.3,66.2,58.3,67.5,61.8,57.0,96,86,70,30.30,30.17,17,4,17,0.00
2013-1-6,79.2,69.1,63.2,72.1,66.3,62.2,98,91,77,30.21,30.07,14,4,15,0.00
2013-1-7,69.3,65.7,61.9,66.2,62.5,59.3,96,90,78,30.20,30.10,15,6,16,0.03
2013-1-8,81.9,70.5,61.5,71.1,65.9,59.5,97,86,67,30.23,30.12,14,4,14,0.00
2013-1-9,84.0,74.1,69.5,72.0,69.3,67.1,96,86,60,30.28,30.16,15,5,17,0.00
2013-1-10,83.0,74.9,66.5,70.0,66.3,62.4,95,76,54,30.29,30.19,24,5,24,0.00
2013-1-11,82.4,72.0,64.8,69.2,65.0,61.9,94,80,55,30.27,30.13,17,4,20,0.00
2013-1-12,80.4,71.4,64.5,70.7,66.8,63.3,96,86,67,30.19,30.08,18,4,18,0.00
2013-1-13,79.5,70.9,64.0,69.5,66.1,62.5,95,85,69,30.17,30.07,11,3,12,0.00
2013-1-14,78.7,69.5,62.3,66.4,62.8,59.6,96,81,55,30.20,30.12,19,3,19,0.00
2013-1-15,77.4,68.9,60.0,67.8,63.8,58.6,96,85,67,30.16,30.06,13,3,13,0.00
2013-1-16,78.5,70.4,63.6,68.3,64.9,62.3,96,84,59,30.12,30.02,14,3,14,0.00
2013-1-17,73.7,64.8,58.0,71.4,60.1,49.8,98,85,66,30.17,30.03,24,7,24,0.02
2013-1-18,63.7,54.4,42.5,57.8,47.9,35.7,91,79,61,30.33,30.17,22,7,22,0.00
2013-1-19,73.3,62.5,53.5,63.3,57.5,51.0,93,84,70,30.28,30.13,19,6,19,0.01
2013-1-20,73.3,65.1,61.3,66.3,61.8,59.0,94,89,77,30.18,30.05,10,2,11,0.00
2013-1-21,73.7,65.9,62.0,66.3,60.7,53.6,88,83,73,30.13,30.04,15,4,15,0.00
2013-1-22,66.2,60.5,53.3,55.2,44.4,34.6,80,57,33,30.30,30.09,17,5,17,0.00
2013-1-23,69.5,56.2,46.4,51.5,40.8,35.3,79,59,30,30.38,30.28,16,4,16,0.00
2013-1-25,72.4,65.3,55.5,57.1,54.5,49.3,92,70,45,30.32,30.21,10,2,11,0.00
2013-1-26,72.1,61.0,48.6,60.2,54.8,47.1,95,82,47,30.31,30.19,11,3,13,0.01
2013-1-27,78.0,66.4,54.0,61.0,54.9,51.1,96,70,41,30.32,30.22,16,4,16,0.01
2013-1-28,81.2,69.3,61.6,65.5,61.9,58.4,91,78,55,30.33,30.21,16,4,18,0.00
2013-1-29,80.3,69.8,60.6,69.0,64.8,58.3,96,85,62,30.25,30.10,18,4,19,0.00
2013-1-30,76.7,71.4,65.5,69.9,66.5,63.4,93,85,73,30.11,29.95,27,7,30,0.00
2013-1-31,69.7,58.4,48.8,67.6,45.2,35.2,95,63,46,30.27,29.95,19,6,19,0.11
2013-2-1,68.0,54.8,42.4,44.4,35.8,28.3,80,53,23,30.39,30.24,18,4,20,0.00
2013-2-2,71.4,58.5,44.7,53.4,45.7,36.5,85,65,34,30.32,30.17,11,4,12,0.00
2013-2-3,67.1,57.1,44.6,57.0,50.7,42.1,93,80,57,30.24,30.12,13,2,13,0.00
2013-2-4,66.6,51.2,44.7,52.4,46.0,38.0,95,84,36,30.18,30.08,10,1,13,0.00
2013-2-5,52.6,50.2,49.3,47.2,42.7,40.4,88,76,68,30.11,30.03,7,2,8,0.00
2013-2-7,76.5,71.4,68.2,67.2,66.3,65.7,93,84,71,30.01,29.88,29,7,29,0.12
2013-2-8,73.9,67.7,61.0,66.6,63.2,57.5,96,86,65,30.10,29.91,19,6,19,0.00
2013-2-9,77.6,66.0,56.1,58.1,56.2,53.6,95,73,47,30.20,30.07,17,5,17,0.00
2013-2-10,81.5,67.9,61.8,64.9,60.4,57.0,89,78,51,30.26,30.14,19,7,22,0.00
2013-2-11,78.3,71.0,60.6,68.8,65.4,58.9,94,83,69,30.21,30.10,20,5,23,0.00
2013-2-12,77.5,71.6,64.9,71.4,68.5,63.4,96,90,80,30.12,29.98,20,5,21,0.00
2013-2-13,76.6,70.7,63.1,72.8,68.2,56.4,98,92,75,30.02,29.90,21,6,21,0.02
2013-2-14,68.7,63.1,59.1,60.8,58.5,56.1,97,85,71,30.05,29.94,21,4,25,0.45
2013-2-15,68.3,61.3,58.4,61.5,58.1,54.2,97,90,78,30.09,29.97,10,2,10,0.12
2013-2-16,66.5,58.8,53.1,55.8,50.4,40.4,92,75,52,30.15,29.96,27,6,28,0.00
2013-2-17,56.5,47.8,40.7,41.7,29.0,19.7,76,49,35,30.37,30.14,19,6,22,0.00
2013-2-18,69.6,53.6,36.8,48.7,39.4,25.1,84,61,36,30.38,30.22,21,5,21,0.00
2013-2-19,73.7,62.9,51.4,64.3,56.5,47.3,94,80,63,30.23,30.11,20,4,20,0.00
2013-2-20,77.3,67.2,58.8,66.9,63.3,57.6,98,88,68,30.14,30.03,10,2,12,0.01
2013-2-21,79.0,72.5,60.2,68.9,65.7,58.5,94,80,65,30.13,30.00,14,4,15,0.00
2013-2-22,79.5,71.1,63.1,72.0,67.3,61.6,96,88,74,30.09,30.02,21,5,21,0.00
2013-2-23,78.7,72.4,67.5,73.4,69.9,66.1,98,92,82,30.03,29.92,20,5,23,0.00
2013-2-24,77.7,70.7,66.9,73.1,69.1,66.3,98,95,82,30.00,29.92,14,3,15,0.01
2013-2-25,79.6,72.5,65.6,74.0,69.7,65.0,98,91,80,29.93,29.80,20,4,20,0.01
2013-2-26,76.1,71.7,67.6,73.0,69.0,64.9,97,91,82,29.93,29.73,26,6,26,0.28
2013-2-27,70.8,68.0,64.5,65.1,60.9,57.8,91,78,67,30.00,29.90,11,4,13,0.00
2013-2-28,70.1,66.5,59.8,59.3,56.0,50.6,87,69,60,30.04,29.95,15,4,16,0.00
2013-3-1,62.5,59.2,56.0,52.4,47.6,41.3,76,66,56,30.07,29.95,17,6,19,0.00
2013-3-2,58.6,55.0,48.3,46.2,43.5,40.8,84,65,57,30.11,30.02,22,6,22,0.01
2013-3-3,55.6,50.0,40.7,44.0,39.0,30.5,70,66,56,30.20,30.01,22,6,22,0.00
2013-3-4,61.2,51.3,40.7,43.3,39.0,33.9,86,64,44,30.27,30.16,14,4,15,0.00
2013-3-5,69.4,58.7,43.1,62.3,53.0,40.7,92,82,65,30.21,30.09,7,4,0,0.00
2013-3-6,66.5,60.2,54.8,64.4,50.9,42.8,94,72,53,30.17,30.01,12,8,0,0.08
2013-3-7,59.4,52.7,44.3,48.4,41.6,34.1,88,67,45,30.26,30.16,9,5,0,0.00
2013-3-8,69.7,56.5,44.4,52.8,46.7,42.2,93,72,39,30.27,30.16,7,4,0,0.00
2013-3-9,74.8,64.8,48.7,57.3,50.8,-99.9,92,63,36,30.24,30.11,16,4,17,0.00
2013-3-10,77.2,65.5,56.8,60.0,55.5,51.6,86,71,47,30.16,30.04,22,5,22,0.00
2013-3-11,75.6,67.5,59.0,64.0,60.4,55.8,90,79,63,30.09,29.91,20,6,22,0.00
2013-3-12,70.4,65.0,59.1,66.2,61.1,53.1,97,87,79,30.06,29.86,21,6,26,0.30
2013-3-13,72.0,63.0,52.0,54.0,47.0,34.5,88,58,26,30.20,30.04,22,7,23,0.00
2013-3-14,63.7,58.3,51.8,53.0,40.4,29.3,77,53,29,30.26,30.16,24,7,24,0.00
2013-3-15,69.9,56.3,42.3,48.6,42.6,30.2,92,64,25,30.30,30.16,14,3,15,0.00
2013-3-16,70.0,58.4,45.2,60.8,51.6,41.8,93,79,58,30.20,30.08,17,3,17,0.00
2013-3-17,75.2,63.9,52.4,62.6,57.3,51.3,96,80,63,30.14,30.00,14,3,15,0.00
2013-3-18,75.7,67.3,60.8,67.9,63.7,58.5,96,88,76,30.04,29.86,18,5,24,0.10
2013-3-19,79.5,69.6,63.8,68.4,65.1,62.3,97,86,66,30.01,29.87,14,3,14,0.00
2013-3-20,73.7,65.4,59.2,64.2,61.8,57.9,97,89,59,30.00,29.81,24,4,25,0.35
2013-3-21,66.7,61.1,54.4,60.2,44.4,34.9,97,58,33,29.99,29.88,17,5,17,0.00
2013-3-22,76.7,69.3,53.1,68.9,61.8,45.2,97,78,54,30.01,29.88,14,4,14,0.26
2013-3-23,76.8,71.3,66.8,73.0,69.6,65.9,98,94,87,29.96,29.80,20,5,23,0.00
2013-3-24,76.7,71.8,69.8,72.9,70.2,68.6,98,95,88,29.83,29.66,22,7,25,0.43
2013-3-25,69.9,63.3,58.3,68.7,52.7,43.3,96,69,50,30.06,29.76,25,8,25,0.00
2013-3-26,59.5,49.7,49.7,49.2,27.5,-99.9,70,54,52,30.26,30.04,24,-83,27,0.01
2013-3-27,56.6,49.9,41.9,43.2,38.1,32.8,78,64,47,30.33,30.22,18,5,18,0.00
2013-3-28,67.5,54.2,41.5,47.5,40.5,31.5,92,64,27,30.31,30.20,15,4,15,0.00
2013-3-29,73.4,59.8,46.5,55.0,46.1,37.0,88,64,28,30.33,30.20,16,4,18,0.00
2013-3-30,72.6,62.4,50.6,59.5,53.7,47.4,91,75,56,30.26,30.14,17,4,17,0.00
2013-3-31,76.5,66.4,56.8,64.3,58.5,52.4,90,77,57,30.18,30.02,19,4,20,0.00
2013-4-1,76.1,70.3,65.6,71.0,67.1,62.6,96,90,82,30.05,29.97,15,4,17,0.00
2013-4-2,75.0,70.0,64.2,67.4,64.5,60.3,98,83,63,30.09,30.01,10,3,10,0.01
2013-4-3,81.3,71.0,62.6,70.0,65.4,60.2,96,84,61,30.07,29.94,18,5,19,0.00
2013-4-4,71.0,67.7,64.9,70.4,66.4,63.8,98,96,87,30.07,29.85,19,4,24,1.92
2013-4-5,71.4,67.3,63.0,68.4,62.8,57.3,97,86,68,29.98,29.82,21,7,22,0.09
2013-4-6,72.3,64.8,58.2,62.2,58.0,53.3,88,79,61,30.09,29.98,19,5,19,0.00
2013-4-7,80.3,69.7,60.0,65.5,60.8,57.5,94,75,52,30.14,30.03,18,4,18,0.00
2013-4-8,82.9,72.2,64.4,66.8,63.0,58.4,88,74,45,30.12,30.03,18,4,18,0.00
2013-4-9,83.3,72.8,63.7,68.2,64.2,60.7,92,76,51,30.14,30.04,18,4,18,0.00
2013-4-10,83.1,69.7,64.1,68.9,64.5,62.0,93,84,61,30.09,30.03,15,5,18,0.00
2013-4-11,82.6,77.8,76.2,73.6,72.7,71.6,91,84,74,29.86,29.81,21,7,24,0.00
2013-4-12,79.5,76.3,73.1,75.2,73.3,69.3,94,91,85,29.92,29.83,20,7,21,0.00
2013-4-13,81.3,74.8,69.0,72.8,69.6,67.2,95,84,73,29.97,29.86,10,2,10,0.00
2013-4-14,83.2,75.6,69.7,76.4,70.9,63.3,96,86,72,30.00,29.84,23,6,28,0.00
2013-4-15,71.0,69.3,67.7,64.0,63.1,62.5,84,81,75,29.98,29.93,10,2,10,0.00
2013-4-16,87.7,77.3,69.3,75.1,71.5,67.8,96,83,61,30.12,30.00,9,4,0,0.13
2013-4-17,87.8,78.4,68.2,73.7,67.6,61.9,93,71,44,30.12,29.99,18,5,18,0.00
2013-4-18,86.2,76.0,68.0,74.1,69.6,65.5,92,81,59,30.03,29.93,15,5,19,0.00
2013-4-19,83.6,77.2,71.1,76.1,72.9,69.3,95,87,77,30.00,29.92,24,6,26,0.00
2013-4-20,77.3,73.6,68.9,73.8,68.3,63.8,96,84,71,30.11,29.96,17,5,17,0.00
2013-4-21,86.1,75.0,61.4,72.1,67.6,59.1,93,79,56,30.10,29.98,16,5,18,0.02
2013-4-22,82.8,73.2,67.4,71.7,68.2,65.4,96,85,65,30.08,29.95,15,4,16,0.41
2013-4-23,85.6,74.5,66.5,68.6,64.7,62.4,92,74,50,30.08,29.98,16,5,19,0.00
2013-4-24,82.6,73.8,62.2,68.4,64.9,59.4,94,75,46,30.13,30.05,15,5,17,0.00
2013-4-25,81.3,74.5,65.0,71.8,67.4,62.3,93,79,55,30.20,30.07,13,4,14,0.00
2013-4-26,83.3,75.1,64.6,72.1,66.6,60.9,92,76,53,30.23,30.13,15,3,15,0.00
2013-4-27,85.4,75.3,67.1,71.7,67.2,63.6,95,77,49,30.20,30.05,18,4,19,0.00
2013-4-28,84.2,75.6,65.4,70.5,66.4,62.4,90,74,53,30.10,29.95,19,5,19,0.00
2013-4-29,83.7,76.0,67.1,73.2,68.7,62.4,90,78,62,30.02,29.90,15,5,16,0.00
2013-4-30,85.0,75.8,68.4,74.7,70.1,66.4,94,83,64,29.98,29.89,15,4,17,0.00
2013-5-1,73.8,69.4,65.1,72.3,67.8,64.2,97,95,89,29.98,29.89,17,4,18,1.52
2013-5-2,79.1,71.7,65.2,71.6,68.0,64.3,98,89,74,29.95,29.80,11,3,12,0.01
2013-5-3,79.8,73.6,66.2,72.3,68.8,65.0,96,85,74,29.83,29.71,16,4,16,0.00
2013-5-4,77.5,72.8,65.8,70.8,68.1,63.7,96,85,75,29.82,29.68,22,5,26,0.00
2013-5-5,74.4,70.3,66.3,67.8,58.6,52.2,94,68,48,29.95,29.79,23,6,24,0.03
2013-5-6,73.8,70.5,66.5,65.0,61.0,58.1,86,72,64,30.01,29.90,16,4,16,0.01
2013-5-7,74.8,68.9,60.4,62.6,59.9,57.1,90,74,60,30.06,29.97,17,4,17,0.00
2013-5-8,76.5,71.0,61.3,65.0,62.6,59.5,94,76,62,30.14,30.03,14,3,15,0.00
2013-5-9,81.3,72.3,61.3,68.4,64.5,58.3,94,77,47,30.15,30.07,12,3,12,0.00
2013-5-10,85.3,75.4,64.0,74.9,69.2,61.7,96,82,54,30.13,30.00,15,4,15,0.00
2013-5-11,83.7,77.5,71.4,77.5,74.3,70.5,97,90,77,30.05,29.98,16,4,16,0.00
2013-5-12,83.1,78.0,72.8,75.2,73.3,69.5,97,86,73,30.05,29.92,13,3,14,0.00
2013-5-13,82.1,75.1,68.3,71.6,65.3,52.6,90,73,50,30.13,29.99,18,4,20,0.00
2013-5-14,82.8,72.1,58.2,59.6,53.8,43.6,81,55,26,30.20,30.08,19,5,22,0.00
2013-5-15,85.0,73.4,62.0,65.8,59.7,49.3,84,64,33,30.19,30.06,14,4,15,0.00
2013-5-16,80.9,73.6,64.7,67.4,64.1,61.3,89,73,56,30.11,29.99,9,3,9,0.00
2013-5-17,82.7,76.3,66.8,71.4,67.5,63.1,89,75,59,30.08,30.00,12,4,13,0.00
2013-5-18,84.9,77.1,69.9,74.7,70.1,67.4,96,80,61,30.09,30.00,13,3,14,0.00
2013-5-19,85.6,78.1,68.5,74.5,69.9,66.1,93,77,58,30.08,29.97,13,2,13,0.00
2013-5-20,88.6,77.5,69.5,75.9,70.7,65.9,91,80,56,30.06,29.94,21,4,23,0.00
2013-5-21,85.0,75.4,68.0,74.2,69.6,66.0,96,83,64,30.01,29.90,17,4,19,0.01
2013-5-22,83.2,76.9,68.3,75.2,71.4,66.5,95,84,67,29.96,29.88,15,3,15,0.00
2013-5-23,83.1,78.4,70.4,74.6,72.8,68.6,96,83,71,30.02,29.90,15,4,16,0.00
2013-5-24,85.5,80.2,75.3,77.6,73.8,70.1,92,81,62,30.06,29.96,15,4,16,0.00
2013-5-25,91.0,81.1,71.5,71.5,67.5,62.6,90,66,41,30.14,30.03,19,6,20,0.00
2013-5-26,87.0,77.2,67.0,66.3,61.0,54.1,87,61,34,30.18,30.08,16,5,17,0.00
2013-5-27,89.4,78.0,66.8,72.6,65.5,61.6,88,67,44,30.16,30.02,19,5,20,0.00
2013-5-28,89.2,79.1,70.6,74.6,70.9,68.0,92,77,57,30.11,29.99,25,8,29,0.00
2013-5-29,87.0,79.0,70.9,73.8,70.8,68.5,95,77,58,30.07,29.99,27,8,27,0.00
2013-5-30,87.8,79.1,72.1,73.9,71.4,69.1,93,79,61,30.05,29.96,26,9,26,0.07
2013-5-31,85.5,79.8,72.3,76.6,73.8,69.3,91,82,70,30.05,29.98,17,6,17,0.07
2013-6-1,86.1,77.8,72.1,77.2,73.6,70.2,96,87,70,30.03,29.94,14,4,15,0.10
2013-6-2,86.8,79.4,72.0,78.2,74.6,71.1,97,86,71,29.98,29.89,18,4,18,0.01
2013-6-3,83.2,78.3,74.7,78.6,74.6,72.9,97,89,79,29.99,29.89,16,4,16,1.06
2013-6-4,83.8,79.1,74.9,76.6,73.8,72.2,94,84,73,30.01,29.93,14,4,18,0.01
2013-6-5,83.0,77.3,73.9,75.4,73.2,71.5,96,88,70,29.99,29.85,18,5,20,0.38
2013-6-6,79.9,76.2,73.1,75.9,73.9,71.7,98,93,86,29.85,29.68,32,10,33,2.17
2013-6-7,83.1,78.7,75.4,77.3,74.5,72.9,93,87,79,29.95,29.78,13,4,14,0.00
2013-6-8,85.9,78.2,70.6,80.1,74.6,70.0,98,89,75,30.07,29.95,17,4,17,1.62
2013-6-9,87.7,78.6,70.9,78.3,74.6,70.3,98,88,70,30.07,29.99,15,3,15,0.08
2013-6-10,87.3,80.1,74.2,78.7,75.2,72.8,97,85,70,30.06,29.99,13,3,14,0.00
2013-6-11,89.2,81.2,75.4,80.7,75.6,70.9,96,84,65,30.06,29.98,20,3,20,0.29
2013-6-12,87.2,76.2,72.7,77.5,72.2,70.5,93,88,67,30.06,30.01,5,1,6,0.00
2013-6-13,86.9,81.6,79.6,77.5,76.0,75.5,88,83,72,30.00,29.93,13,3,13,0.00
2013-6-14,86.1,82.4,79.5,77.0,75.4,74.0,88,80,70,29.95,29.87,14,4,15,0.00
2013-6-15,86.9,82.8,78.1,78.0,76.1,71.6,88,80,69,30.03,29.91,14,4,14,0.00
2013-6-16,78.2,77.7,76.9,75.3,74.9,74.3,93,91,88,30.03,30.02,7,2,7,0.00
2013-6-17,87.3,84.4,82.5,77.6,76.8,75.7,83,78,70,30.05,29.98,12,3,12,0.00
2013-6-18,88.8,83.4,76.2,79.4,76.9,73.4,93,81,67,30.05,29.95,14,3,16,0.00
2013-6-19,89.0,83.4,73.0,80.3,76.7,69.8,96,81,67,30.02,29.95,12,2,15,0.31
2013-6-20,88.8,82.0,75.7,78.9,74.5,72.0,89,79,61,30.08,29.99,11,3,11,0.00
2013-6-21,88.9,79.0,73.1,77.8,73.1,70.8,94,83,62,30.09,30.01,11,3,11,0.00
2013-6-22,89.4,83.2,72.8,76.3,73.7,70.3,94,74,62,30.09,30.02,14,4,14,0.00
2013-6-23,89.0,78.6,71.6,78.4,74.1,70.0,97,87,62,30.11,30.03,23,4,25,1.22
2013-6-24,87.8,77.9,73.6,78.0,74.2,72.4,97,89,64,30.18,30.06,23,3,23,0.56
2013-6-25,89.4,81.4,71.8,78.2,74.6,70.3,97,81,58,30.16,30.03,18,3,21,0.67
2013-6-26,87.5,78.6,73.7,79.0,74.1,70.7,98,86,72,30.08,30.02,10,3,11,0.01
2013-6-27,87.8,79.6,71.7,77.6,73.6,70.0,96,83,66,30.06,29.95,13,3,13,0.00
2013-6-28,87.6,83.7,75.4,78.7,76.8,74.3,97,80,69,30.00,29.87,15,4,15,0.30
2013-6-29,88.0,83.1,78.0,78.8,76.4,73.7,89,80,72,29.90,29.83,22,6,24,0.07
2013-6-30,87.7,82.2,73.8,79.1,76.2,72.3,95,82,72,29.91,29.82,17,6,17,0.65
2013-7-1,78.4,75.2,72.7,75.5,73.3,71.7,97,94,87,30.00,29.86,18,5,23,2.62
2013-7-2,88.0,77.5,72.5,78.7,73.6,71.0,97,88,67,30.10,29.98,22,5,22,0.44
2013-7-3,89.8,77.3,73.7,78.6,74.0,71.5,97,90,65,30.13,30.05,14,4,20,1.42
2013-7-4,87.7,78.2,72.5,79.5,74.3,71.0,96,88,70,30.15,30.07,17,4,19,0.08
2013-7-5,86.1,76.9,70.3,77.3,73.7,68.7,97,90,73,30.15,30.05,18,4,18,0.87
2013-7-6,90.3,79.2,73.2,77.9,74.8,72.0,97,87,60,30.09,29.99,17,4,17,0.01
2013-7-7,91.5,81.6,74.7,77.3,74.8,73.2,95,81,58,30.08,30.01,16,5,18,0.00
2013-7-8,91.5,82.0,72.8,77.8,74.7,70.9,96,80,52,30.13,30.04,17,4,17,0.38
2013-7-9,91.9,82.2,73.4,75.9,73.1,69.7,95,76,50,30.14,30.02,17,3,17,0.00
2013-7-10,87.5,79.7,73.7,78.2,74.0,71.3,96,84,62,30.07,29.95,13,2,13,0.53
2013-7-11,87.0,79.5,74.4,77.2,74.4,72.2,96,85,66,30.01,29.92,13,3,13,0.00
2013-7-12,86.3,81.5,74.4,77.9,75.2,70.6,93,81,71,29.95,29.87,12,2,13,0.23
2013-7-13,86.0,78.2,74.3,78.1,74.3,71.8,94,88,71,29.97,29.88,15,2,15,0.81
2013-7-14,86.0,77.5,72.9,78.4,73.6,70.7,96,88,73,30.05,29.92,16,4,16,0.06
2013-7-15,88.6,78.0,73.3,77.6,73.2,70.8,96,86,59,30.08,29.97,15,4,18,0.75
2013-7-16,86.8,77.1,73.5,75.9,73.0,69.6,96,88,62,30.11,30.03,27,5,28,0.04
2013-7-17,89.8,77.1,70.9,76.5,72.7,69.2,96,87,61,30.12,30.04,27,4,27,0.47
2013-7-18,84.1,76.7,71.0,76.4,73.0,69.5,96,89,73,30.09,30.02,13,3,15,0.01
2013-7-19,88.1,79.4,72.2,79.3,74.4,70.1,95,85,73,30.10,30.02,18,4,20,0.00
2013-7-20,88.1,79.3,72.7,80.4,74.5,70.9,95,86,71,30.09,30.00,16,4,16,0.00
2013-7-21,88.1,81.8,74.1,80.9,76.5,72.2,94,84,73,30.11,30.03,14,3,17,0.00
2013-7-22,87.9,82.8,76.5,80.1,77.5,74.6,94,84,76,30.12,30.05,14,3,14,0.00
2013-7-23,86.8,82.9,77.9,77.6,76.3,74.6,90,81,72,30.09,29.96,13,3,15,0.00
2013-7-24,87.3,84.2,80.8,77.3,76.0,74.7,83,77,68,30.01,29.91,16,6,17,0.00
2013-7-25,88.3,83.8,82.1,78.8,77.1,75.9,84,81,71,30.00,29.88,18,7,18,0.00
2013-7-26,89.1,84.2,77.1,79.6,77.8,73.9,92,81,71,30.00,29.92,16,5,16,0.09
2013-7-27,89.2,84.5,78.7,78.9,77.0,75.1,90,79,65,29.98,29.90,8,3,12,0.00
2013-7-28,88.2,82.9,75.9,78.3,75.8,73.7,94,80,68,30.04,29.92,9,2,14,0.00
2013-7-29,89.9,81.6,74.6,78.6,74.9,72.0,93,81,59,30.13,30.00,16,3,16,0.04
2013-7-30,92.0,80.4,74.2,80.2,75.0,72.0,96,85,57,30.15,30.04,20,2,21,0.72
2013-7-31,92.3,81.8,75.6,80.5,75.8,71.9,95,83,57,30.12,29.98,16,3,18,0.00
2013-8-1,89.1,82.1,75.1,78.6,75.5,71.2,93,81,61,30.04,29.92,12,4,13,0.00
2013-8-2,88.9,84.8,74.9,79.5,76.7,72.2,92,77,69,30.03,29.92,11,3,12,0.00
2013-8-3,89.8,83.9,78.1,80.0,77.1,75.3,93,80,66,30.08,29.98,13,3,13,0.00
2013-8-4,88.2,84.3,77.9,80.1,78.0,75.7,95,82,73,30.08,29.99,15,3,15,0.29
2013-8-5,89.5,85.2,82.2,80.3,78.3,76.8,86,80,71,30.02,29.92,8,3,9,0.01
2013-8-6,88.3,82.4,72.9,81.0,77.9,71.4,96,87,71,29.98,29.87,8,2,12,3.16
2013-8-7,92.1,80.7,75.5,80.8,76.1,73.6,95,87,62,29.95,29.88,9,3,18,0.96
2013-8-8,90.4,80.7,75.2,79.2,75.6,71.1,95,85,62,30.00,29.90,12,4,18,0.23
2013-8-9,76.8,76.7,76.5,74.2,74.1,73.9,92,92,91,29.99,29.99,3,2,5,0.00
2013-8-10,90.9,81.6,72.6,80.8,75.5,71.1,95,83,65,30.10,30.01,7,3,0,0.00
2013-8-11,91.7,83.9,74.8,80.1,76.9,73.0,94,80,63,30.13,30.02,6,4,0,0.00
2013-8-12,91.4,83.4,75.7,81.0,77.1,73.8,94,82,59,30.11,29.98,5,2,6,0.00
2013-8-13,90.9,85.6,75.2,78.7,77.0,73.0,93,76,59,30.04,29.92,13,3,13,0.05
2013-8-14,89.4,83.7,77.5,80.1,77.0,73.8,94,81,61,29.98,29.90,13,3,15,0.04
2013-8-15,87.9,80.7,75.2,79.1,75.7,72.2,91,85,71,30.03,29.93,12,3,16,0.18
2013-8-16,91.3,85.3,76.1,79.5,77.5,73.2,91,78,61,30.03,29.93,11,3,11,0.38
2013-8-17,91.9,80.8,74.1,80.4,75.5,71.2,96,85,56,30.05,29.95,24,3,24,0.17
2013-8-18,89.5,78.4,72.7,80.7,75.1,70.9,95,90,66,30.09,29.97,19,4,21,1.22
2013-8-19,93.0,79.5,73.0,80.2,74.8,71.5,96,87,56,30.05,29.93,22,4,22,0.16
2013-8-20,92.2,79.3,73.1,78.4,74.4,71.3,95,86,59,30.05,29.96,13,3,15,0.01
2013-8-21,92.3,80.1,72.6,79.5,75.6,70.6,97,87,60,30.07,29.94,23,4,28,1.00
2013-8-22,91.3,77.5,72.9,78.8,74.9,71.1,97,92,64,30.05,29.94,11,3,13,0.20
2013-8-23,91.1,80.7,74.5,80.5,75.2,72.6,97,84,62,30.00,29.93,16,3,17,0.02
2013-8-24,90.3,79.5,73.2,81.2,75.3,71.6,96,87,68,30.08,29.97,19,3,21,1.01
2013-8-25,88.9,77.5,72.9,78.6,74.2,71.4,95,90,66,30.12,30.03,19,3,21,0.00
2013-8-26,91.2,79.9,72.7,78.0,74.2,70.0,94,84,57,30.11,29.97,16,3,17,0.18
2013-8-27,88.3,77.1,72.3,77.0,73.3,71.1,96,89,66,30.03,29.96,16,3,17,0.18
2013-8-28,90.1,76.3,71.8,77.6,72.6,69.9,96,89,57,30.03,29.95,17,2,20,1.38
2013-8-29,89.8,80.3,71.8,78.1,73.7,70.3,95,81,55,30.02,29.91,15,3,16,0.01
2013-8-30,88.1,81.0,74.1,78.9,75.5,70.8,93,84,62,29.99,29.88,9,2,11,0.56
2013-8-31,87.5,81.0,74.5,78.7,75.6,69.3,95,84,68,29.97,29.88,20,2,20,0.21
2013-9-1,88.5,80.9,74.3,78.2,75.0,71.5,95,83,66,29.97,29.90,12,2,12,0.30
2013-9-2,88.4,80.4,74.5,80.1,75.7,72.5,95,86,71,30.00,29.92,18,3,19,0.01
2013-9-3,89.0,81.3,76.1,79.6,76.0,73.8,96,85,67,30.01,29.91,11,2,13,0.02
2013-9-4,90.7,79.7,72.6,79.5,74.7,69.2,94,86,65,30.06,29.93,24,2,29,0.44
2013-9-5,92.6,79.4,73.3,81.1,74.7,69.3,94,86,59,30.07,29.97,19,3,19,0.60
2013-9-6,92.0,81.9,72.1,79.7,75.6,69.9,96,82,63,30.03,29.91,27,4,31,0.49
2013-9-7,89.6,79.1,72.2,77.7,73.4,70.7,96,84,60,30.00,29.89,19,4,22,0.01
2013-9-8,89.4,79.0,72.3,77.9,73.3,70.5,95,84,62,29.97,29.81,15,3,15,0.01
2013-9-9,92.5,82.5,74.8,77.0,74.2,71.3,93,78,52,29.96,29.83,14,4,16,0.01
2013-9-10,91.3,82.5,74.3,76.2,72.8,67.0,94,74,48,30.01,29.90,17,5,19,0.00
2013-9-11,89.2,80.7,75.0,77.0,73.8,70.6,92,80,62,30.00,29.91,21,5,26,0.01
2013-9-12,88.4,79.0,72.7,78.4,73.7,69.6,94,85,63,29.97,29.83,20,3,21,0.03
2013-9-13,87.9,78.7,71.6,77.5,73.3,70.1,95,84,68,29.90,29.76,12,2,14,0.00
2013-9-14,89.4,81.2,75.2,77.4,74.7,70.8,95,82,63,29.92,29.78,10,2,10,0.00
2013-9-15,93.3,80.4,73.6,78.2,74.0,70.5,93,82,60,30.01,29.89,27,4,27,0.01
2013-9-16,89.2,78.3,73.0,78.9,74.5,70.8,97,89,67,30.00,29.92,27,4,36,0.93
2013-9-17,88.8,77.0,72.4,77.5,73.3,70.9,96,89,65,29.99,29.88,18,3,19,0.32
2013-9-18,90.8,78.7,73.1,77.6,74.1,71.5,96,87,61,29.97,29.88,17,3,17,0.38
2013-9-19,87.7,78.3,73.1,77.6,74.2,71.3,95,88,67,29.99,29.90,19,3,20,0.18
2013-9-20,88.1,81.3,72.5,74.0,72.1,69.9,93,75,59,29.97,29.84,14,4,14,0.00
2013-9-21,85.6,79.2,70.9,75.2,71.9,68.1,91,79,64,29.89,29.73,15,4,16,0.00
2013-9-22,87.9,81.9,74.8,78.2,75.6,72.6,93,82,69,29.81,29.72,18,3,19,0.00
2013-9-23,80.8,77.3,74.8,77.3,75.2,73.3,96,93,86,29.91,29.78,15,2,19,3.75
2013-9-24,79.5,75.8,73.9,76.0,74.1,72.4,96,94,88,29.93,29.81,12,2,13,2.02
2013-9-25,81.4,76.0,70.9,78.2,73.1,69.0,96,91,82,29.90,29.75,21,4,29,1.56
2013-9-26,87.0,82.3,77.4,80.3,77.5,72.9,91,85,74,29.83,29.75,18,5,18,0.03
2013-9-27,86.2,78.6,71.1,73.4,71.4,68.9,94,79,59,29.90,29.81,17,4,18,0.00
2013-9-28,89.3,78.7,71.7,74.9,71.7,69.6,93,80,54,29.94,29.85,19,5,19,0.00
2013-9-29,88.3,78.8,71.1,74.1,70.4,66.9,92,77,51,29.93,29.83,12,3,14,0.00
2013-9-30,87.9,79.7,70.5,75.3,72.0,68.7,94,78,57,29.93,29.85,12,3,14,0.00
2013-10-1,90.0,80.4,71.9,75.7,72.0,69.8,94,77,55,29.99,29.89,14,4,15,0.00
2013-10-2,88.9,80.5,72.6,75.0,72.2,69.8,91,77,58,29.99,29.90,17,6,18,0.00
2013-10-3,88.1,78.6,73.1,77.6,72.9,69.7,89,83,65,30.01,29.91,13,4,14,0.00
2013-10-4,88.7,80.0,74.8,76.4,73.1,68.7,92,80,55,30.03,29.94,11,3,12,0.00
2013-10-5,88.3,79.7,72.7,76.1,72.7,69.5,90,80,57,30.01,29.88,12,3,14,0.00
2013-10-6,86.4,79.3,72.0,76.5,73.2,70.4,95,82,62,29.93,29.82,12,3,13,0.00
2013-10-7,84.9,79.4,73.5,78.4,74.5,71.1,94,85,78,29.83,29.73,23,6,23,0.56
2013-10-8,83.9,80.6,75.0,75.6,73.7,71.2,88,80,69,29.90,29.76,16,5,17,0.00
2013-10-9,78.5,74.8,69.8,71.3,69.8,66.2,92,85,76,29.98,29.88,13,3,14,0.00
2013-10-10,85.9,74.8,65.8,72.0,67.9,64.0,94,81,58,30.01,29.91,12,3,13,0.00
2013-10-11,86.1,77.6,66.9,72.3,68.3,64.6,94,74,54,29.99,29.89,11,3,11,0.00
2013-10-12,84.7,76.5,67.1,70.2,66.0,62.9,88,71,50,30.00,29.93,13,3,15,0.00
2013-10-13,86.9,75.1,66.0,71.5,65.3,62.4,89,73,47,30.03,29.92,10,2,10,0.00
2013-10-14,85.5,75.9,66.6,72.0,67.0,63.6,91,75,51,30.00,29.87,12,4,14,0.00
2013-10-15,82.1,74.7,67.3,72.4,68.9,65.5,94,83,68,29.95,29.84,13,3,13,0.00
2013-10-16,80.6,74.4,68.5,73.8,69.9,66.9,95,86,75,29.92,29.85,10,3,11,0.00
2013-10-17,84.3,77.0,69.2,74.5,70.3,66.5,93,81,56,29.93,29.85,11,3,11,0.00
2013-10-18,85.8,77.4,71.5,75.8,71.8,69.4,94,84,64,29.93,29.84,11,2,12,0.00
2013-10-19,85.8,80.1,73.3,77.6,74.8,71.0,95,84,68,29.90,29.82,13,3,14,0.11
2013-10-20,85.1,79.2,73.4,77.5,74.4,72.2,96,86,73,29.91,29.82,10,2,10,0.00
2013-10-21,84.7,78.7,73.2,77.5,73.7,71.4,96,85,73,29.95,29.87,9,2,10,0.00
2013-10-22,85.1,77.6,71.1,78.5,73.4,69.3,95,87,77,29.91,29.77,15,3,21,0.22
2013-10-23,79.4,75.0,71.0,73.8,67.0,52.4,96,77,46,29.96,29.76,18,5,19,0.41
2013-10-24,73.0,67.1,63.0,61.5,54.9,48.8,84,65,54,30.11,29.94,17,5,17,0.00
2013-10-25,80.6,68.0,58.9,61.0,57.5,54.5,91,72,42,30.19,30.08,16,4,19,0.00
2013-10-26,79.8,68.7,60.2,63.1,59.1,52.7,89,73,40,30.16,30.04,12,4,13,0.00
2013-10-27,80.6,68.0,57.4,61.5,57.6,54.8,92,72,42,30.08,29.99,13,3,14,0.00
2013-10-28,83.9,70.4,60.3,66.2,60.6,56.7,89,73,44,30.13,30.03,13,3,13,0.00
2013-10-29,84.5,73.3,63.5,68.2,63.7,60.2,89,73,48,30.17,30.06,15,4,16,0.00
2013-10-30,84.7,74.5,66.3,70.0,66.3,63.9,92,77,55,30.17,30.02,17,4,17,0.00
2013-10-31,85.0,74.6,65.9,72.4,68.3,63.5,93,81,57,30.07,29.93,15,3,15,0.00
2013-11-1,82.3,76.5,70.1,76.2,72.4,68.3,94,87,79,29.95,29.85,15,3,16,0.00
2013-11-2,79.4,73.5,66.9,74.3,69.1,63.0,93,86,68,29.93,29.78,23,4,23,0.11
2013-11-3,76.4,68.3,62.3,63.1,53.0,44.5,89,61,33,30.06,29.92,17,5,18,0.00
2013-11-4,80.7,69.0,59.5,63.5,59.3,51.8,85,72,54,30.09,30.00,24,6,24,0.00
2013-11-5,81.7,74.2,66.1,72.1,67.4,62.8,90,80,68,30.07,29.98,21,7,24,0.00
2013-11-6,85.0,76.0,69.3,70.9,68.2,66.0,90,78,58,30.04,29.94,19,4,19,0.00
2013-11-7,79.6,72.3,66.5,71.7,67.6,64.7,94,85,74,30.00,29.92,12,2,13,0.00
2013-11-8,69.7,68.5,67.4,66.5,65.9,65.3,94,91,88,29.96,29.94,8,2,9,0.00
2013-11-10,83.5,74.2,66.4,69.7,66.2,63.3,91,77,57,30.10,30.00,8,4,16,0.00
2013-11-11,83.2,74.0,67.7,70.2,66.9,64.7,91,79,62,30.10,30.00,7,4,15,0.00
2013-11-12,80.9,72.1,65.5,70.1,66.9,63.7,94,84,65,30.06,29.95,6,3,14,0.00
2013-11-13,70.5,63.5,55.5,63.0,53.8,49.7,81,71,62,30.22,30.01,13,9,27,0.00
2013-11-14,77.0,64.6,53.8,60.4,54.6,49.5,86,71,49,30.23,30.10,11,6,23,0.00
2013-11-15,75.5,69.2,62.9,66.6,62.6,58.0,85,80,70,30.11,29.98,8,4,16,0.01
2013-11-16,77.2,72.5,68.9,70.2,66.5,64.8,94,82,67,30.07,29.97,19,7,20,0.27
2013-11-17,82.8,75.1,69.7,71.8,69.0,64.4,90,82,67,30.02,29.94,16,3,19,0.00
2013-11-18,80.5,74.1,68.9,73.0,70.0,66.9,94,87,74,29.98,29.89,11,2,11,0.00
2013-11-19,80.6,76.3,71.2,73.6,69.9,63.8,94,81,74,29.91,29.82,12,4,12,0.00
2013-11-20,81.8,72.7,66.8,73.1,68.1,63.1,92,86,74,30.00,29.90,11,3,12,0.00
2013-11-21,84.2,76.4,70.0,73.6,71.0,67.3,94,84,70,30.10,30.00,14,5,19,0.00
2013-11-22,83.4,76.4,69.6,72.3,69.2,64.6,93,79,65,30.12,30.02,18,5,18,0.00
2013-11-23,82.3,71.9,63.9,70.5,66.1,61.8,94,82,65,30.07,29.95,12,3,13,0.00
2013-11-24,72.8,66.4,60.4,65.7,61.1,54.9,91,83,74,30.15,29.98,18,6,22,0.00
2013-11-25,76.7,71.1,60.4,63.9,62.3,54.9,88,74,62,30.16,29.99,29,10,29,0.00
2013-11-26,80.9,73.5,67.4,73.9,69.8,62.9,94,88,77,30.04,29.73,28,8,28,0.42
2013-11-27,74.5,65.8,51.2,71.2,59.1,44.3,94,79,63,30.15,29.71,24,8,27,0.07
2013-11-28,65.7,51.8,39.3,52.3,42.9,32.7,85,72,55,30.30,30.08,18,6,19,0.00
2013-11-29,60.6,53.0,51.2,54.0,49.6,47.9,90,88,79,30.29,30.23,17,6,18,0.00
2013-11-30,74.9,68.3,54.7,65.9,62.4,51.5,93,82,72,30.27,30.11,17,5,19,0.00
2013-12-1,73.5,63.9,59.8,66.6,61.2,57.7,95,91,78,30.14,29.94,14,3,14,0.00
2013-12-2,68.0,64.3,59.3,62.7,60.5,57.6,96,88,78,29.94,29.81,7,1,8,0.01
2013-12-3,75.0,68.9,61.2,69.0,64.2,58.6,92,85,74,29.94,29.85,15,3,15,0.00
2013-12-4,79.5,71.1,64.6,70.8,66.5,62.9,95,86,73,30.03,29.92,15,3,19,0.00
2013-12-5,81.0,71.6,65.2,70.6,66.5,62.8,93,85,62,30.12,30.02,12,2,13,0.00
2013-12-6,81.8,72.6,66.3,73.2,68.7,64.7,95,88,73,30.13,30.03,17,3,18,0.00
2013-12-7,81.5,71.9,65.1,70.7,67.2,63.6,95,86,68,30.18,30.09,9,2,9,0.01
2013-12-8,83.3,72.6,65.3,71.6,67.3,63.7,95,84,57,30.17,30.04,14,3,16,0.00
2013-12-9,81.2,72.3,65.6,73.2,68.2,63.5,95,87,75,30.13,30.04,17,3,17,0.00
2013-12-10,79.4,71.0,61.5,72.5,67.5,60.1,95,89,79,30.12,30.05,12,2,12,0.01
2013-12-11,82.2,70.7,65.2,70.7,66.5,62.2,95,87,66,30.18,30.09,16,4,16,0.00
2013-12-12,72.9,65.5,54.1,65.2,55.1,39.3,95,71,40,30.25,30.12,15,5,18,0.00
2013-12-13,76.0,62.9,52.1,60.8,52.2,36.6,84,69,53,30.22,30.04,17,6,17,0.00
2013-12-14,80.9,74.4,63.1,72.2,69.9,59.2,92,86,75,30.05,29.91,21,6,21,0.00
2013-12-15,73.9,70.3,61.7,71.6,65.6,57.5,95,85,72,30.07,29.86,16,5,17,0.00
2013-12-16,65.0,57.9,50.5,57.5,50.3,44.1,89,76,57,30.18,30.06,14,4,14,0.00
2013-12-17,71.3,51.5,46.3,58.1,45.6,41.9,88,81,56,30.21,30.10,10,4,15,0.00
2013-12-18,72.5,59.9,47.1,53.3,46.1,41.0,87,64,33,30.24,30.15,14,3,16,0.00
2013-12-19,76.8,62.5,49.7,60.1,52.6,44.5,87,72,47,30.22,30.10,15,4,16,0.00
2013-12-20,83.3,68.9,60.9,70.5,62.1,55.8,87,80,63,30.14,30.03,17,5,17,0.00
2013-12-21,82.5,76.3,67.9,72.3,70.0,65.1,92,81,70,30.08,29.97,22,5,22,0.00
2013-12-22,81.4,72.8,68.2,73.3,68.9,66.5,95,88,75,30.09,30.01,23,4,24,0.00
2013-12-23,80.5,73.8,67.9,74.3,70.5,66.1,95,90,80,30.12,30.05,17,4,19,0.00
2013-12-24,73.1,65.3,53.1,71.3,55.3,36.7,94,72,43,30.21,30.07,18,6,24,0.12
2013-12-25,76.8,55.6,50.4,63.7,32.3,-99.9,79,60,60,30.19,30.06,15,-140,21,0.00
2013-12-26,78.1,58.4,61.7,66.5,33.0,-99.9,85,60,61,30.16,30.03,12,-176,13,0.00
2013-12-27,78.5,69.9,62.3,68.7,64.0,58.7,90,82,71,30.23,30.09,19,6,20,0.00
2013-12-28,80.0,71.6,64.7,71.0,66.9,62.2,93,86,73,30.18,29.98,19,6,20,0.00
2013-12-29,74.6,70.6,64.8,71.5,67.5,61.7,94,90,86,30.00,29.89,18,5,20,0.16
2013-12-30,68.8,50.4,61.6,62.3,24.3,-99.9,92,66,77,30.19,30.00,13,-220,14,0.00
2013-12-31,67.0,46.0,60.4,58.7,11.2,-99.9,90,52,61,30.27,30.14,13,-278,14,0.00
2014-1-1,71.6,53.9,59.1,66.0,32.0,-99.9,93,70,72,30.22,30.03,14,-180,19,0.00
2014-1-2,76.3,69.2,62.1,71.5,66.6,57.1,96,91,83,30.03,29.85,24,5,26,0.15